Time,TemperatureF,DewpointF,PressureIn,WindDirection,WindDirectionDegrees,WindSpeedMPH,WindSpeedGustMPH,Humidity,HourlyPrecipIn,Conditions,Clouds,dailyrainin,SoftwareType,DateUTC
2013-03-31 00:00:00,50.8,30.7,30.12,North,360,4.0,5.0,46,0.00,,,0.00,Wunderground v.1.15,2013-03-31 04:00:00,
2013-03-31 00:04:00,50.7,30.7,30.12,North,360,4.0,5.0,46,0.00,,,0.00,Wunderground v.1.15,2013-03-31 04:04:00,
2013-03-31 00:08:00,50.6,30.6,30.12,North,360,5.0,5.0,46,0.00,,,0.00,Wunderground v.1.15,2013-03-31 04:08:00,
2013-03-31 00:10:00,50.6,30.6,30.12,North,360,5.0,6.0,46,0.00,,,0.00,Wunderground v.1.15,2013-03-31 04:10:00,
2013-03-31 00:14:00,50.5,30.5,30.11,North,360,5.0,6.0,46,0.00,,,0.00,Wunderground v.1.15,2013-03-31 04:14:00,
2013-03-31 00:16:00,50.5,30.5,30.11,North,360,5.0,7.0,46,0.00,,,0.00,Wunderground v.1.15,2013-03-31 04:16:00,
2013-03-31 00:19:00,50.4,30.4,30.11,North,360,6.0,6.0,46,0.00,,,0.00,Wunderground v.1.15,2013-03-31 04:19:00,
2013-03-31 00:22:00,50.4,30.4,30.11,North,360,5.0,6.0,46,0.00,,,0.00,Wunderground v.1.15,2013-03-31 04:22:00,
2013-03-31 00:30:00,50.3,30.8,30.11,North,360,3.0,3.0,47,0.00,,,0.00,Wunderground v.1.15,2013-03-31 04:30:00,
2013-03-31 00:34:00,50.3,30.8,30.11,North,360,3.0,3.0,47,0.00,,,0.00,Wunderground v.1.15,2013-03-31 04:34:00,
2013-03-31 00:41:00,50.1,30.6,30.11,North,360,4.0,4.0,47,0.00,,,0.00,Wunderground v.1.15,2013-03-31 04:41:00,
2013-03-31 00:46:00,50.1,30.6,30.11,North,360,4.0,5.0,47,0.00,,,0.00,Wunderground v.1.15,2013-03-31 04:46:00,
2013-03-31 00:48:00,50.1,31.2,30.11,North,360,3.0,5.0,48,0.00,,,0.00,Wunderground v.1.15,2013-03-31 04:48:00,
2013-03-31 00:54:00,49.8,30.9,30.11,North,360,4.0,7.0,48,0.00,,,0.00,Wunderground v.1.15,2013-03-31 04:54:00,
2013-03-31 00:56:00,49.7,30.8,30.11,North,360,4.0,9.0,48,0.00,,,0.00,Wunderground v.1.15,2013-03-31 04:56:00,
2013-03-31 02:40:00,48.6,31.8,30.08,North,360,4.0,4.0,52,0.00,,,0.00,Wunderground v.1.15,2013-03-31 06:40:00,
2013-03-31 11:34:00,53.0,41.9,29.92,North,360,3.0,7.0,66,0.00,,,0.00,Wunderground v.1.15,2013-03-31 15:34:00,
2013-03-31 11:40:00,53.2,42.1,29.92,North,360,3.0,3.0,66,0.00,,,0.00,Wunderground v.1.15,2013-03-31 15:40:00,
2013-03-31 11:42:00,53.2,42.1,29.91,North,360,4.0,4.0,66,0.00,,,0.00,Wunderground v.1.15,2013-03-31 15:42:00,
2013-03-31 11:44:00,53.3,42.2,29.91,North,360,4.0,4.0,66,0.00,,,0.00,Wunderground v.1.15,2013-03-31 15:44:00,
2013-03-31 11:50:00,53.6,42.5,29.91,North,360,3.0,5.0,66,0.00,,,0.00,Wunderground v.1.15,2013-03-31 15:50:00,
2013-03-31 11:54:00,54.0,42.9,29.91,North,360,3.0,5.0,66,0.00,,,0.00,Wunderground v.1.15,2013-03-31 15:54:00,
2013-03-31 11:56:00,54.2,42.7,29.91,North,360,3.0,12.0,65,0.00,,,0.00,Wunderground v.1.15,2013-03-31 15:56:00,
2013-03-31 11:58:00,54.5,43.4,29.90,North,360,4.0,12.0,66,0.00,,,0.00,Wunderground v.1.15,2013-03-31 15:58:00,
2013-03-31 12:00:00,54.8,43.3,29.90,North,360,5.0,12.0,65,0.00,,,0.00,Wunderground v.1.15,2013-03-31 16:00:00,
2013-03-31 12:02:00,55.1,43.5,29.90,North,360,6.0,12.0,65,0.00,,,0.00,Wunderground v.1.15,2013-03-31 16:02:00,
2013-03-31 12:05:00,55.6,43.6,29.90,North,360,6.0,12.0,64,0.00,,,0.00,Wunderground v.1.15,2013-03-31 16:05:00,
2013-03-31 12:10:00,55.8,43.8,29.90,North,360,7.0,10.0,64,0.00,,,0.00,Wunderground v.1.15,2013-03-31 16:10:00,
2013-03-31 12:12:00,55.9,43.9,29.90,North,360,8.0,10.0,64,0.00,,,0.00,Wunderground v.1.15,2013-03-31 16:12:00,
2013-03-31 12:14:00,55.9,43.9,29.89,North,360,9.0,10.0,64,0.00,,,0.00,Wunderground v.1.15,2013-03-31 16:14:00,
2013-03-31 12:16:00,56.0,44.0,29.89,North,360,9.0,10.0,64,0.00,,,0.00,Wunderground v.1.15,2013-03-31 16:16:00,
2013-03-31 12:22:00,56.2,43.8,29.89,North,360,8.0,9.0,63,0.00,,,0.00,Wunderground v.1.15,2013-03-31 16:22:00,
2013-03-31 12:24:00,56.1,43.7,29.89,North,360,8.0,9.0,63,0.00,,,0.00,Wunderground v.1.15,2013-03-31 16:24:00,
2013-03-31 12:30:00,56.1,43.7,29.89,North,360,8.0,12.0,63,0.00,,,0.00,Wunderground v.1.15,2013-03-31 16:30:00,
2013-03-31 12:32:00,56.1,44.1,29.89,North,360,8.0,12.0,64,0.00,,,0.00,Wunderground v.1.15,2013-03-31 16:32:00,
2013-03-31 12:34:00,56.0,44.0,29.88,North,360,8.0,12.0,64,0.00,,,0.00,Wunderground v.1.15,2013-03-31 16:34:00,
2013-03-31 12:38:00,55.8,44.2,29.88,North,360,10.0,12.0,65,0.00,,,0.00,Wunderground v.1.15,2013-03-31 16:38:00,
2013-03-31 12:40:00,55.7,44.1,29.88,North,360,10.0,10.0,65,0.00,,,0.00,Wunderground v.1.15,2013-03-31 16:40:00,
2013-03-31 12:44:00,55.6,44.4,29.87,North,360,9.0,10.0,66,0.00,,,0.00,Wunderground v.1.15,2013-03-31 16:44:00,
2013-03-31 12:45:00,55.5,44.3,29.88,North,360,8.0,10.0,66,0.00,,,0.00,Wunderground v.1.15,2013-03-31 16:45:00,
2013-03-31 12:50:00,55.5,44.7,29.87,North,360,7.0,7.0,67,0.00,,,0.00,Wunderground v.1.15,2013-03-31 16:50:00,
2013-03-31 12:52:00,55.6,45.2,29.87,North,360,7.0,7.0,68,0.00,,,0.00,Wunderground v.1.15,2013-03-31 16:52:00,
2013-03-31 12:56:00,55.5,45.1,29.87,North,360,5.0,7.0,68,0.00,,,0.00,Wunderground v.1.15,2013-03-31 16:56:00,
2013-03-31 12:58:00,55.4,45.0,29.86,North,360,5.0,7.0,68,0.00,,,0.00,Wunderground v.1.15,2013-03-31 16:58:00,
2013-03-31 13:00:00,55.3,45.3,29.86,North,360,5.0,7.0,69,0.00,,,0.00,Wunderground v.1.15,2013-03-31 17:00:00,
2013-03-31 13:02:00,55.1,45.1,29.86,North,360,6.0,11.0,69,0.00,,,0.00,Wunderground v.1.15,2013-03-31 17:02:00,
2013-03-31 13:06:00,55.0,45.4,29.85,North,360,7.0,11.0,70,0.00,,,0.00,Wunderground v.1.15,2013-03-31 17:06:00,
2013-03-31 13:07:00,54.9,45.3,29.85,North,360,7.0,11.0,70,0.00,,,0.00,Wunderground v.1.15,2013-03-31 17:07:00,
2013-03-31 13:12:00,54.7,45.5,29.85,North,360,7.0,12.0,71,0.00,,,0.00,Wunderground v.1.15,2013-03-31 17:12:00,
2013-03-31 13:14:00,54.6,45.4,29.84,North,360,9.0,12.0,71,0.00,,,0.00,Wunderground v.1.15,2013-03-31 17:14:00,
2013-03-31 13:16:00,54.6,45.8,29.84,North,360,9.0,12.0,72,0.00,,,0.00,Wunderground v.1.15,2013-03-31 17:16:00,
2013-03-31 13:18:00,54.7,45.8,29.84,North,360,8.0,12.0,72,0.00,,,0.00,Wunderground v.1.15,2013-03-31 17:18:00,
2013-03-31 13:24:00,54.6,45.8,29.84,North,360,7.0,13.0,72,0.00,,,0.00,Wunderground v.1.15,2013-03-31 17:24:00,
2013-03-31 13:26:00,54.5,45.7,29.84,North,360,7.0,13.0,72,0.00,,,0.00,Wunderground v.1.15,2013-03-31 17:26:00,
2013-03-31 13:28:00,54.5,45.7,29.84,North,360,7.0,13.0,72,0.00,,,0.00,Wunderground v.1.15,2013-03-31 17:28:00,
2013-03-31 13:31:00,54.4,45.6,29.84,North,360,6.0,10.0,72,0.00,,,0.00,Wunderground v.1.15,2013-03-31 17:31:00,
2013-03-31 13:36:00,54.4,45.6,29.83,North,360,6.0,11.0,72,0.00,,,0.00,Wunderground v.1.15,2013-03-31 17:36:00,
2013-03-31 13:38:00,54.4,45.6,29.83,North,360,6.0,11.0,72,0.00,,,0.00,Wunderground v.1.15,2013-03-31 17:38:00,
2013-03-31 13:42:00,54.6,45.8,29.82,North,360,5.0,10.0,72,0.00,,,0.00,Wunderground v.1.15,2013-03-31 17:42:00,
2013-03-31 13:44:00,54.5,45.7,29.82,North,360,5.0,10.0,72,0.00,,,0.00,Wunderground v.1.15,2013-03-31 17:44:00,
2013-03-31 13:46:00,54.5,45.7,29.82,North,360,6.0,10.0,72,0.00,,,0.00,Wunderground v.1.15,2013-03-31 17:46:00,
2013-03-31 13:48:00,54.5,46.0,29.82,North,360,6.0,10.0,73,0.00,,,0.00,Wunderground v.1.15,2013-03-31 17:48:00,
2013-03-31 13:54:00,54.6,46.1,29.82,North,360,5.0,12.0,73,0.00,,,0.00,Wunderground v.1.15,2013-03-31 17:54:00,
2013-03-31 13:55:00,54.6,46.1,29.82,North,360,6.0,12.0,73,0.00,,,0.00,Wunderground v.1.15,2013-03-31 17:55:00,
2013-03-31 13:57:00,54.6,46.1,29.82,North,360,6.0,12.0,73,0.00,,,0.00,Wunderground v.1.15,2013-03-31 17:57:00,
2013-03-31 14:02:00,54.7,46.6,29.81,North,360,7.0,7.0,74,0.00,,,0.00,Wunderground v.1.15,2013-03-31 18:02:00,
2013-03-31 14:06:00,54.7,46.6,29.81,North,360,6.0,8.0,74,0.00,,,0.00,Wunderground v.1.15,2013-03-31 18:06:00,
2013-03-31 14:08:00,54.7,46.6,29.81,North,360,6.0,8.0,74,0.00,,,0.00,Wunderground v.1.15,2013-03-31 18:08:00,
2013-03-31 14:14:00,54.6,46.8,29.81,North,360,8.0,14.0,75,0.00,,,0.00,Wunderground v.1.15,2013-03-31 18:14:00,
2013-03-31 14:16:00,54.5,46.7,29.81,North,360,9.0,14.0,75,0.00,,,0.00,Wunderground v.1.15,2013-03-31 18:16:00,
2013-03-31 14:20:00,54.5,47.1,29.81,North,360,10.0,13.0,76,0.00,,,0.00,Wunderground v.1.15,2013-03-31 18:20:00,
2013-03-31 14:22:00,54.4,47.0,29.81,North,360,10.0,13.0,76,0.00,,,0.00,Wunderground v.1.15,2013-03-31 18:22:00,
2013-03-31 14:24:00,54.3,47.2,29.80,North,360,8.0,13.0,77,0.00,,,0.00,Wunderground v.1.15,2013-03-31 18:24:00,
2013-03-31 14:26:00,54.2,47.1,29.80,North,360,8.0,13.0,77,0.00,,,0.00,Wunderground v.1.15,2013-03-31 18:26:00,
2013-03-31 14:32:00,53.9,47.9,29.80,North,360,6.0,8.0,80,0.00,,,0.00,Wunderground v.1.15,2013-03-31 18:32:00,
2013-03-31 14:34:00,53.8,47.8,29.80,North,360,5.0,8.0,80,0.00,,,0.00,Wunderground v.1.15,2013-03-31 18:34:00,
2013-03-31 14:40:00,53.3,47.9,29.80,North,360,4.0,4.0,82,0.00,,,0.00,Wunderground v.1.15,2013-03-31 18:40:00,
2013-03-31 14:41:00,53.2,48.2,29.80,North,360,4.0,4.0,83,0.00,,,0.00,Wunderground v.1.15,2013-03-31 18:41:00,
2013-03-31 14:46:00,53.1,48.4,29.79,North,360,4.0,9.0,84,0.00,,,0.00,Wunderground v.1.15,2013-03-31 18:46:00,
2013-03-31 14:50:00,52.8,48.4,29.78,North,360,4.0,5.0,85,0.00,,,0.01,Wunderground v.1.15,2013-03-31 18:50:00,
2013-03-31 14:51:00,52.7,48.3,29.78,North,360,5.0,5.0,85,0.00,,,0.01,Wunderground v.1.15,2013-03-31 18:51:00,
2013-03-31 14:54:00,52.6,48.2,29.78,North,360,5.0,5.0,85,0.00,,,0.01,Wunderground v.1.15,2013-03-31 18:54:00,
2013-03-31 14:58:00,52.4,48.3,29.78,North,360,5.0,5.0,86,0.00,,,0.01,Wunderground v.1.15,2013-03-31 18:58:00,
2013-03-31 15:02:00,52.2,48.4,29.78,North,360,5.0,6.0,87,0.00,,,0.01,Wunderground v.1.15,2013-03-31 19:02:00,
2013-03-31 15:04:00,52.1,48.3,29.78,North,360,5.0,6.0,87,0.00,,,0.01,Wunderground v.1.15,2013-03-31 19:04:00,
2013-03-31 15:05:00,52.1,48.7,29.78,North,360,5.0,6.0,88,0.00,,,0.01,Wunderground v.1.15,2013-03-31 19:05:00,
2013-03-31 15:10:00,52.0,48.6,29.77,North,360,5.0,10.0,88,0.00,,,0.01,Wunderground v.1.15,2013-03-31 19:10:00,
2013-03-31 15:11:00,51.9,48.5,29.77,North,360,5.0,10.0,88,0.00,,,0.01,Wunderground v.1.15,2013-03-31 19:11:00,
2013-03-31 15:14:00,51.8,48.7,29.77,North,360,5.0,10.0,89,0.00,,,0.01,Wunderground v.1.15,2013-03-31 19:14:00,
2013-03-31 15:16:00,51.8,48.7,29.76,North,360,5.0,10.0,89,0.00,,,0.01,Wunderground v.1.15,2013-03-31 19:16:00,
2013-03-31 15:20:00,51.9,49.1,29.75,North,360,5.0,6.0,90,0.00,,,0.01,Wunderground v.1.15,2013-03-31 19:20:00,
2013-03-31 15:22:00,51.9,49.1,29.75,North,360,5.0,6.0,90,0.00,,,0.01,Wunderground v.1.15,2013-03-31 19:22:00,
2013-03-31 15:26:00,51.8,49.0,29.75,North,360,5.0,6.0,90,0.00,,,0.01,Wunderground v.1.15,2013-03-31 19:26:00,
2013-03-31 15:30:00,51.9,49.4,29.76,North,360,5.0,5.0,91,0.00,,,0.01,Wunderground v.1.15,2013-03-31 19:30:00,
2013-03-31 15:31:00,51.9,49.4,29.76,North,360,4.0,5.0,91,0.00,,,0.01,Wunderground v.1.15,2013-03-31 19:31:00,
2013-03-31 15:38:00,52.0,49.5,29.76,North,360,3.0,5.0,91,0.00,,,0.01,Wunderground v.1.15,2013-03-31 19:38:00,
2013-03-31 15:40:00,52.0,49.5,29.76,North,360,3.0,4.0,91,0.00,,,0.01,Wunderground v.1.15,2013-03-31 19:40:00,
2013-03-31 15:42:00,52.0,49.5,29.76,North,360,3.0,4.0,91,0.00,,,0.01,Wunderground v.1.15,2013-03-31 19:42:00,
2013-03-31 15:48:00,52.0,49.5,29.77,North,360,3.0,4.0,91,0.00,,,0.01,Wunderground v.1.15,2013-03-31 19:48:00,
2013-03-31 15:50:00,52.1,49.6,29.77,North,360,3.0,3.0,91,0.00,,,0.01,Wunderground v.1.15,2013-03-31 19:50:00,
2013-03-31 15:54:00,52.2,49.7,29.77,North,360,3.0,3.0,91,0.00,,,0.01,Wunderground v.1.15,2013-03-31 19:54:00,
2013-03-31 15:56:00,52.2,49.7,29.77,North,360,3.0,6.0,91,0.00,,,0.01,Wunderground v.1.15,2013-03-31 19:56:00,
2013-03-31 15:58:00,52.2,49.7,29.77,North,360,4.0,6.0,91,0.00,,,0.01,Wunderground v.1.15,2013-03-31 19:58:00,
2013-03-31 16:00:00,52.1,49.6,29.77,North,360,4.0,10.0,91,0.00,,,0.01,Wunderground v.1.15,2013-03-31 20:00:00,
2013-03-31 16:04:00,52.0,49.5,29.76,North,360,5.0,10.0,91,0.00,,,0.01,Wunderground v.1.15,2013-03-31 20:04:00,
2013-03-31 16:10:00,52.1,49.6,29.76,North,360,5.0,5.0,91,0.00,,,0.01,Wunderground v.1.15,2013-03-31 20:10:00,
2013-03-31 16:12:00,52.0,49.5,29.76,North,360,5.0,6.0,91,0.00,,,0.01,Wunderground v.1.15,2013-03-31 20:12:00,
2013-03-31 16:14:00,52.0,49.5,29.76,North,360,5.0,9.0,91,0.00,,,0.01,Wunderground v.1.15,2013-03-31 20:14:00,
2013-03-31 16:18:00,51.9,49.4,29.75,North,360,6.0,9.0,91,0.00,,,0.01,Wunderground v.1.15,2013-03-31 20:18:00,
2013-03-31 16:20:00,51.8,49.3,29.75,North,360,7.0,7.0,91,0.00,,,0.01,Wunderground v.1.15,2013-03-31 20:20:00,
2013-03-31 16:22:00,51.8,49.3,29.75,North,360,7.0,11.0,91,0.00,,,0.01,Wunderground v.1.15,2013-03-31 20:22:00,
2013-03-31 16:27:00,51.7,49.5,29.76,North,360,8.0,11.0,92,0.00,,,0.01,Wunderground v.1.15,2013-03-31 20:27:00,
2013-03-31 16:30:00,51.7,49.5,29.76,North,360,8.0,9.0,92,0.00,,,0.01,Wunderground v.1.15,2013-03-31 20:30:00,
2013-03-31 16:32:00,51.8,49.5,29.76,North,360,7.0,9.0,92,0.00,,,0.01,Wunderground v.1.15,2013-03-31 20:32:00,
2013-03-31 16:34:00,51.7,49.5,29.76,North,360,7.0,10.0,92,0.00,,,0.01,Wunderground v.1.15,2013-03-31 20:34:00,
2013-03-31 16:38:00,51.8,49.5,29.76,North,360,6.0,10.0,92,0.00,,,0.01,Wunderground v.1.15,2013-03-31 20:38:00,
2013-03-31 16:41:00,51.9,49.4,29.75,North,360,6.0,7.0,91,0.00,,,0.01,Wunderground v.1.15,2013-03-31 20:41:00,
2013-03-31 16:44:00,51.9,49.4,29.75,North,360,6.0,7.0,91,0.00,,,0.01,Wunderground v.1.15,2013-03-31 20:44:00,
2013-03-31 16:46:00,51.9,49.6,29.75,North,360,6.0,12.0,92,0.00,,,0.01,Wunderground v.1.15,2013-03-31 20:46:00,
2013-03-31 16:48:00,52.0,49.5,29.75,North,360,5.0,12.0,91,0.00,,,0.01,Wunderground v.1.15,2013-03-31 20:48:00,
2013-03-31 16:50:00,52.0,49.7,29.75,North,360,5.0,10.0,92,0.00,,,0.01,Wunderground v.1.15,2013-03-31 20:50:00,
2013-03-31 16:54:00,51.9,49.4,29.75,North,360,5.0,10.0,91,0.00,,,0.01,Wunderground v.1.15,2013-03-31 20:54:00,
2013-03-31 16:57:00,51.9,49.4,29.75,North,360,7.0,10.0,91,0.00,,,0.01,Wunderground v.1.15,2013-03-31 20:57:00,
2013-03-31 17:00:00,51.9,49.4,29.75,North,360,7.0,7.0,91,0.00,,,0.01,Wunderground v.1.15,2013-03-31 21:00:00,
2013-03-31 17:02:00,51.9,49.4,29.75,North,360,6.0,7.0,91,0.00,,,0.01,Wunderground v.1.15,2013-03-31 21:02:00,
2013-03-31 17:04:00,51.9,49.4,29.75,North,360,5.0,7.0,91,0.00,,,0.01,Wunderground v.1.15,2013-03-31 21:04:00,
2013-03-31 17:06:00,52.0,49.5,29.75,North,360,5.0,7.0,91,0.00,,,0.01,Wunderground v.1.15,2013-03-31 21:06:00,
2013-03-31 17:12:00,52.2,49.9,29.75,North,360,4.0,6.0,92,0.00,,,0.01,Wunderground v.1.15,2013-03-31 21:12:00,
2013-03-31 17:14:00,52.2,49.7,29.75,North,360,5.0,6.0,91,0.00,,,0.01,Wunderground v.1.15,2013-03-31 21:14:00,
2013-03-31 17:15:00,52.2,49.7,29.75,North,360,5.0,6.0,91,0.00,,,0.01,Wunderground v.1.15,2013-03-31 21:15:00,
2013-03-31 17:18:00,52.3,49.8,29.75,North,360,5.0,6.0,91,0.00,,,0.01,Wunderground v.1.15,2013-03-31 21:18:00,
2013-03-31 17:24:00,52.3,49.8,29.75,North,360,4.0,9.0,91,0.00,,,0.01,Wunderground v.1.15,2013-03-31 21:24:00,
2013-03-31 17:26:00,52.3,49.8,29.75,North,360,4.0,9.0,91,0.00,,,0.01,Wunderground v.1.15,2013-03-31 21:26:00,
2013-03-31 17:28:00,52.3,49.8,29.75,North,360,4.0,9.0,91,0.00,,,0.01,Wunderground v.1.15,2013-03-31 21:28:00,
2013-03-31 17:29:00,52.3,49.8,29.75,North,360,4.0,4.0,91,0.00,,,0.01,Wunderground v.1.15,2013-03-31 21:29:00,
2013-03-31 17:34:00,52.3,49.8,29.75,North,360,3.0,4.0,91,0.00,,,0.01,Wunderground v.1.15,2013-03-31 21:34:00,
2013-03-31 17:38:00,52.3,49.8,29.75,North,360,4.0,7.0,91,0.00,,,0.01,Wunderground v.1.15,2013-03-31 21:38:00,
2013-03-31 17:40:00,52.3,49.8,29.75,North,360,4.0,4.0,91,0.00,,,0.01,Wunderground v.1.15,2013-03-31 21:40:00,
2013-03-31 17:42:00,52.3,49.8,29.75,North,360,4.0,4.0,91,0.00,,,0.01,Wunderground v.1.15,2013-03-31 21:42:00,
2013-03-31 17:44:00,52.3,49.8,29.75,North,360,4.0,4.0,91,0.00,,,0.01,Wunderground v.1.15,2013-03-31 21:44:00,
2013-03-31 17:46:00,52.3,49.8,29.75,North,360,4.0,4.0,91,0.00,,,0.01,Wunderground v.1.15,2013-03-31 21:46:00,
2013-03-31 17:52:00,52.3,49.8,29.74,North,360,5.0,5.0,91,0.00,,,0.01,Wunderground v.1.15,2013-03-31 21:52:00,
2013-03-31 17:56:00,52.3,49.8,29.74,North,360,6.0,6.0,91,0.00,,,0.01,Wunderground v.1.15,2013-03-31 21:56:00,
2013-03-31 17:59:00,52.4,49.8,29.75,North,360,5.0,5.0,91,0.00,,,0.01,Wunderground v.1.15,2013-03-31 21:59:00,
2013-03-31 18:02:00,52.5,49.9,29.75,North,360,4.0,5.0,91,0.00,,,0.01,Wunderground v.1.15,2013-03-31 22:02:00,
2013-03-31 18:04:00,52.5,49.9,29.74,North,360,4.0,5.0,91,0.00,,,0.01,Wunderground v.1.15,2013-03-31 22:04:00,
2013-03-31 18:08:00,52.6,50.0,29.74,North,360,4.0,5.0,91,0.00,,,0.01,Wunderground v.1.15,2013-03-31 22:08:00,
2013-03-31 18:14:00,52.7,49.8,29.73,North,360,3.0,6.0,90,0.00,,,0.01,Wunderground v.1.15,2013-03-31 22:14:00,
2013-03-31 18:16:00,52.8,49.9,29.73,North,360,3.0,6.0,90,0.00,,,0.01,Wunderground v.1.15,2013-03-31 22:16:00,
2013-03-31 18:18:00,52.8,49.9,29.74,North,360,4.0,7.0,90,0.00,,,0.01,Wunderground v.1.15,2013-03-31 22:18:00,
2013-03-31 18:19:00,52.8,49.9,29.74,North,360,5.0,6.0,90,0.00,,,0.01,Wunderground v.1.15,2013-03-31 22:19:00,
2013-03-31 18:24:00,52.8,49.9,29.74,North,360,6.0,9.0,90,0.00,,,0.01,Wunderground v.1.15,2013-03-31 22:24:00,
2013-03-31 18:26:00,52.9,50.0,29.74,North,360,7.0,11.0,90,0.00,,,0.01,Wunderground v.1.15,2013-03-31 22:26:00,
2013-03-31 18:30:00,52.9,49.7,29.75,North,360,8.0,8.0,89,0.00,,,0.01,Wunderground v.1.15,2013-03-31 22:30:00,
2013-03-31 18:32:00,53.0,49.8,29.74,North,360,8.0,8.0,89,0.00,,,0.01,Wunderground v.1.15,2013-03-31 22:32:00,
2013-03-31 18:34:00,53.0,49.8,29.74,North,360,8.0,8.0,89,0.00,,,0.01,Wunderground v.1.15,2013-03-31 22:34:00,
2013-03-31 18:38:00,53.0,49.8,29.74,North,360,7.0,8.0,89,0.00,,,0.01,Wunderground v.1.15,2013-03-31 22:38:00,
2013-03-31 18:40:00,53.0,49.5,29.74,North,360,7.0,10.0,88,0.00,,,0.01,Wunderground v.1.15,2013-03-31 22:40:00,
2013-03-31 18:44:00,53.0,49.5,29.73,North,360,8.0,10.0,88,0.00,,,0.01,Wunderground v.1.15,2013-03-31 22:44:00,
2013-03-31 18:46:00,53.0,49.5,29.73,North,360,8.0,10.0,88,0.00,,,0.01,Wunderground v.1.15,2013-03-31 22:46:00,
2013-03-31 18:50:00,53.0,49.5,29.73,North,360,7.0,7.0,88,0.00,,,0.01,Wunderground v.1.15,2013-03-31 22:50:00,
2013-03-31 18:56:00,53.1,49.6,29.74,North,360,7.0,7.0,88,0.00,,,0.01,Wunderground v.1.15,2013-03-31 22:56:00,
2013-03-31 18:58:00,53.1,49.6,29.74,North,360,7.0,10.0,88,0.00,,,0.01,Wunderground v.1.15,2013-03-31 22:58:00,
2013-03-31 18:59:00,53.1,49.3,29.74,North,360,7.0,7.0,87,0.00,,,0.01,Wunderground v.1.15,2013-03-31 22:59:00,
2013-03-31 19:05:00,53.0,49.2,29.75,North,360,9.0,14.0,87,0.00,,,0.01,Wunderground v.1.15,2013-03-31 23:05:00,
2013-03-31 19:08:00,53.0,49.2,29.75,North,360,9.0,14.0,87,0.00,,,0.01,Wunderground v.1.15,2013-03-31 23:08:00,
2013-03-31 19:12:00,53.0,49.2,29.75,North,360,9.0,15.0,87,0.00,,,0.01,Wunderground v.1.15,2013-03-31 23:12:00,
2013-03-31 19:15:00,52.8,48.7,29.75,North,360,10.0,15.0,86,0.00,,,0.01,Wunderground v.1.15,2013-03-31 23:15:00,
2013-03-31 19:18:00,52.8,48.7,29.75,North,360,10.0,15.0,86,0.00,,,0.01,Wunderground v.1.15,2013-03-31 23:18:00,
2013-03-31 19:22:00,52.7,48.6,29.75,North,360,11.0,14.0,86,0.00,,,0.01,Wunderground v.1.15,2013-03-31 23:22:00,
2013-03-31 19:24:00,52.6,48.5,29.74,North,360,11.0,14.0,86,0.00,,,0.01,Wunderground v.1.15,2013-03-31 23:24:00,
2013-03-31 19:54:00,52.3,48.2,29.75,North,360,9.0,11.0,86,0.00,,,0.01,Wunderground v.1.15,2013-03-31 23:54:00,
2013-03-31 21:04:00,52.0,48.3,29.76,North,360,5.0,15.0,87,0.00,,,0.01,Wunderground v.1.15,2013-04-01 01:04:00,
2013-03-31 22:04:00,52.0,48.3,29.77,North,360,5.0,15.0,87,0.00,,,0.01,Wunderground v.1.15,2013-04-01 02:04:00,
2013-03-31 22:06:00,52.0,48.3,29.77,North,360,4.0,15.0,87,0.00,,,0.01,Wunderground v.1.15,2013-04-01 02:06:00,
2013-03-31 22:08:00,52.0,47.9,29.78,North,360,5.0,15.0,86,0.00,,,0.01,Wunderground v.1.15,2013-04-01 02:08:00,
2013-03-31 22:14:00,51.9,47.8,29.78,North,360,6.0,6.0,86,0.00,,,0.01,Wunderground v.1.15,2013-04-01 02:14:00,
2013-03-31 22:16:00,52.0,47.9,29.78,North,360,6.0,6.0,86,0.00,,,0.01,Wunderground v.1.15,2013-04-01 02:16:00,
2013-03-31 22:20:00,52.1,48.3,29.78,North,360,5.0,5.0,87,0.00,,,0.01,Wunderground v.1.15,2013-04-01 02:20:00,
2013-03-31 22:24:00,52.1,48.0,29.78,North,360,3.0,6.0,86,0.00,,,0.01,Wunderground v.1.15,2013-04-01 02:24:00,
2013-03-31 22:25:00,52.1,48.0,29.77,North,360,3.0,6.0,86,0.00,,,0.01,Wunderground v.1.15,2013-04-01 02:25:00,
2013-03-31 22:28:00,52.1,48.0,29.77,North,360,3.0,6.0,86,0.00,,,0.01,Wunderground v.1.15,2013-04-01 02:28:00,
2013-03-31 22:30:00,52.1,48.0,29.78,North,360,3.0,3.0,86,0.00,,,0.01,Wunderground v.1.15,2013-04-01 02:30:00,
2013-03-31 22:40:00,52.1,48.0,29.77,North,360,1.0,1.0,86,0.00,,,0.01,Wunderground v.1.15,2013-04-01 02:40:00,
2013-03-31 22:41:00,52.1,48.0,29.77,North,360,1.0,5.0,86,0.00,,,0.01,Wunderground v.1.15,2013-04-01 02:41:00,
2013-03-31 22:44:00,52.1,48.0,29.77,North,360,2.0,5.0,86,0.00,,,0.01,Wunderground v.1.15,2013-04-01 02:44:00,
2013-03-31 22:48:00,52.0,47.9,29.78,North,360,2.0,5.0,86,0.00,,,0.01,Wunderground v.1.15,2013-04-01 02:48:00,
2013-03-31 22:49:00,52.0,47.9,29.78,North,360,2.0,2.0,86,0.00,,,0.01,Wunderground v.1.15,2013-04-01 02:49:00,
2013-03-31 22:52:00,52.0,47.9,29.78,North,360,2.0,5.0,86,0.00,,,0.01,Wunderground v.1.15,2013-04-01 02:52:00,
2013-03-31 22:54:00,51.9,47.8,29.78,North,360,2.0,5.0,86,0.00,,,0.01,Wunderground v.1.15,2013-04-01 02:54:00,
2013-03-31 22:56:00,51.9,47.8,29.78,North,360,2.0,5.0,86,0.00,,,0.01,Wunderground v.1.15,2013-04-01 02:56:00,
2013-03-31 23:00:00,51.8,48.1,29.78,North,360,2.0,3.0,87,0.00,,,0.01,Wunderground v.1.15,2013-04-01 03:00:00,
2013-03-31 23:02:00,51.8,48.1,29.77,North,360,3.0,3.0,87,0.00,,,0.01,Wunderground v.1.15,2013-04-01 03:02:00,
2013-03-31 23:08:00,51.8,48.1,29.77,North,360,2.0,3.0,87,0.00,,,0.01,Wunderground v.1.15,2013-04-01 03:08:00,
2013-03-31 23:12:00,51.7,48.0,29.77,North,360,2.0,5.0,87,0.00,,,0.01,Wunderground v.1.15,2013-04-01 03:12:00,
2013-03-31 23:14:00,51.7,48.0,29.77,North,360,4.0,5.0,87,0.00,,,0.01,Wunderground v.1.15,2013-04-01 03:14:00,
2013-03-31 23:16:00,51.7,48.0,29.77,North,360,4.0,5.0,87,0.00,,,0.01,Wunderground v.1.15,2013-04-01 03:16:00,
2013-03-31 23:19:00,51.7,48.0,29.77,North,360,4.0,4.0,87,0.00,,,0.01,Wunderground v.1.15,2013-04-01 03:19:00,
2013-03-31 23:22:00,51.6,47.9,29.77,North,360,3.0,4.0,87,0.00,,,0.01,Wunderground v.1.15,2013-04-01 03:22:00,
2013-03-31 23:26:00,51.6,47.9,29.77,North,360,2.0,4.0,87,0.00,,,0.01,Wunderground v.1.15,2013-04-01 03:26:00,
2013-03-31 23:30:00,51.6,47.9,29.77,North,360,1.0,2.0,87,0.00,,,0.01,Wunderground v.1.15,2013-04-01 03:30:00,
2013-03-31 23:32:00,51.6,47.9,29.77,North,360,1.0,2.0,87,0.00,,,0.01,Wunderground v.1.15,2013-04-01 03:32:00,
2013-03-31 23:37:00,51.5,47.8,29.77,North,360,1.0,2.0,87,0.00,,,0.01,Wunderground v.1.15,2013-04-01 03:37:00,
2013-03-31 23:40:00,51.5,47.8,29.77,North,360,1.0,1.0,87,0.00,,,0.01,Wunderground v.1.15,2013-04-01 03:40:00,
2013-03-31 23:44:00,51.4,47.7,29.77,North,360,1.0,2.0,87,0.00,,,0.01,Wunderground v.1.15,2013-04-01 03:44:00,
2013-03-31 23:46:00,51.4,47.7,29.77,North,360,1.0,2.0,87,0.00,,,0.01,Wunderground v.1.15,2013-04-01 03:46:00,
2013-03-31 23:48:00,51.4,47.7,29.77,North,360,1.0,2.0,87,0.00,,,0.01,Wunderground v.1.15,2013-04-01 03:48:00,
2013-03-31 23:50:00,51.4,47.7,29.77,North,360,1.0,3.0,87,0.00,,,0.01,Wunderground v.1.15,2013-04-01 03:50:00,
2013-03-31 23:52:00,51.4,47.7,29.78,North,360,1.0,3.0,87,0.00,,,0.01,Wunderground v.1.15,2013-04-01 03:52:00,
2013-03-31 23:56:00,51.3,47.9,29.77,North,360,1.0,3.0,88,0.00,,,0.01,Wunderground v.1.15,2013-04-01 03:56:00,